Time;durP1;ratioP1;P1;durP2;ratioP2;P2;SDS_P1;SDS_P2;PMS_P1;PMS_P2;Temp;Humidity;BMP_temperature;BMP_pressure;BME280_temperature;BME280_humidity;BME280_pressure;Samples;Min_cycle;Max_cycle;Signal;HPM_P1;HPM_P2
2021/04/30 00:00:22;;;;;;;;;;;;;;;9.75;100.00;101236.33;1819315;79;22329;-72
2021/04/30 00:02:51;;;;;;;;;;;;;;;9.75;100.00;101242.35;1819279;79;20152;-73
2021/04/30 00:05:19;;;;;;;;;;;;;;;9.76;100.00;101241.91;1819271;79;20554;-72
2021/04/30 00:07:47;;;;;;;;;;;;;;;9.77;100.00;101237.07;1819059;79;20121;-73
2021/04/30 00:10:15;;;;;;;;;;;;;;;9.78;100.00;101240.05;1819194;78;20109;-75
2021/04/30 00:12:44;;;;;;;;;;;;;;;9.77;100.00;101232.73;1819481;79;22093;-72
2021/04/30 00:15:13;;;;;;;;;;;;;;;9.77;100.00;101235.78;1819073;79;20220;-72
2021/04/30 00:17:41;;;;;;;;;;;;;;;9.77;100.00;101231.44;1819029;78;20267;-73
2021/04/30 00:20:10;;;;;;;;;;;;;;;9.77;100.00;101227.55;1819189;79;20319;-73
2021/04/30 00:22:37;;;;;;;;;;;;;;;9.77;100.00;101222.36;1819197;78;20129;-72
2021/04/30 00:25:05;;;;;;;;;;;;;;;9.78;100.00;101227.09;1819268;78;20506;-73
2021/04/30 00:27:34;;;;;;;;;;;;;;;9.79;100.00;101225.73;1819237;78;20609;-73
2021/04/30 00:30:04;;;;;;;;;;;;;;;9.74;100.00;101226.41;1819327;78;20133;-73
2021/04/30 00:32:32;;;;;;;;;;;;;;;9.68;100.00;101231.93;1819191;79;20129;-72
2021/04/30 00:35:02;;;;;;;;;;;;;;;9.60;100.00;101223.73;1819177;78;20480;-72
2021/04/30 00:37:31;;;;;;;;;;;;;;;9.51;100.00;101225.04;1819166;79;21398;-72
2021/04/30 00:39:59;;;;;;;;;;;;;;;9.44;100.00;101223.72;1819309;78;20217;-72
2021/04/30 00:42:28;;;;;;;;;;;;;;;9.40;100.00;101214.88;1819237;78;20125;-73
2021/04/30 00:44:56;;;;;;;;;;;;;;;9.40;100.00;101215.72;1819247;79;20113;-73
2021/04/30 00:47:27;;;;;;;;;;;;;;;9.41;100.00;101216.56;1819220;79;20223;-73
2021/04/30 00:49:59;;;;;;;;;;;;;;;9.41;100.00;101217.85;1819147;78;21401;-73
2021/04/30 00:52:26;;;;;;;;;;;;;;;9.41;100.00;101217.36;1819215;78;20129;-72
2021/04/30 00:54:54;;;;;;;;;;;;;;;9.40;100.00;101219.60;1819079;79;20654;-72
2021/04/30 00:57:23;;;;;;;;;;;;;;;9.39;100.00;101224.84;1819000;79;20132;-72
2021/04/30 00:59:52;;;;;;;;;;;;;;;9.38;100.00;101221.41;1819264;79;20172;-72
2021/04/30 01:02:21;;;;;;;;;;;;;;;9.40;100.00;101222.64;1787896;79;22253;-72
2021/04/30 01:04:49;;;;;;;;;;;;;;;9.42;100.00;101221.64;1819262;78;20180;-72
2021/04/30 01:07:17;;;;;;;;;;;;;;;9.46;100.00;101223.61;1819097;79;20594;-72
2021/04/30 01:09:44;;;;;;;;;;;;;;;9.46;100.00;101222.32;1819092;78;20681;-72
2021/04/30 01:12:13;;;;;;;;;;;;;;;9.48;100.00;101231.67;1819059;78;20220;-72
2021/04/30 01:14:41;;;;;;;;;;;;;;;9.53;100.00;101230.16;1819194;79;22098;-72
2021/04/30 01:17:11;;;;;;;;;;;;;;;9.56;100.00;101232.12;1819058;78;20217;-72
2021/04/30 01:19:39;;;;;;;;;;;;;;;9.58;100.00;101217.33;1819246;78;20299;-72
2021/04/30 01:22:08;;;;;;;;;;;;;;;9.62;100.00;101211.53;1819167;78;20514;-72
2021/04/30 01:24:38;;;;;;;;;;;;;;;9.63;100.00;101205.89;1819167;79;20228;-72
2021/04/30 01:27:05;;;;;;;;;;;;;;;9.64;100.00;101203.66;1819288;79;22195;-72
2021/04/30 01:29:33;;;;;;;;;;;;;;;9.64;100.00;101202.36;1819114;78;20274;-72
2021/04/30 01:32:01;;;;;;;;;;;;;;;9.65;100.00;101202.30;1819207;78;20545;-73
2021/04/30 01:34:31;;;;;;;;;;;;;;;9.66;100.00;101197.95;1819083;78;20140;-73
2021/04/30 01:37:00;;;;;;;;;;;;;;;9.66;100.00;101187.59;1819234;79;20252;-73
2021/04/30 01:39:29;;;;;;;;;;;;;;;9.63;100.00;101189.89;1819278;78;21248;-73
2021/04/30 01:41:56;;;;;;;;;;;;;;;9.58;100.00;101191.42;1819037;79;20530;-72
2021/04/30 01:44:24;;;;;;;;;;;;;;;9.52;100.00;101186.56;1819392;78;20498;-72
2021/04/30 01:46:53;;;;;;;;;;;;;;;9.45;100.00;101189.09;1787907;79;20145;-72
2021/04/30 01:49:21;;;;;;;;;;;;;;;9.40;100.00;101193.70;1819040;77;20554;-72
2021/04/30 01:51:49;;;;;;;;;;;;;;;9.39;100.00;101188.12;1819160;78;21869;-72
2021/04/30 01:54:17;;;;;;;;;;;;;;;9.37;100.00;101187.84;1819056;78;20609;-72
2021/04/30 01:56:45;;;;;;;;;;;;;;;9.37;100.00;101182.66;1819200;79;20295;-72
2021/04/30 01:59:13;;;;;;;;;;;;;;;9.35;100.00;101175.44;1818966;79;20228;-72
2021/04/30 02:01:42;;;;;;;;;;;;;;;9.31;100.00;101183.83;1819039;78;20216;-72
2021/04/30 02:04:11;;;;;;;;;;;;;;;9.25;100.00;101188.03;1819002;78;21182;-73
2021/04/30 02:06:40;;;;;;;;;;;;;;;9.21;100.00;101193.44;1818891;79;20200;-73
2021/04/30 02:09:09;;;;;;;;;;;;;;;9.14;100.00;101185.15;1819136;79;20149;-72
2021/04/30 02:11:37;;;;;;;;;;;;;;;9.10;100.00;101187.51;1819099;78;20112;-72
2021/04/30 02:14:06;;;;;;;;;;;;;;;9.06;100.00;101187.31;1818852;78;20224;-72
2021/04/30 02:16:34;;;;;;;;;;;;;;;9.03;100.00;101190.87;1819127;78;22064;-73
2021/04/30 02:19:02;;;;;;;;;;;;;;;8.99;100.00;101185.49;1818947;78;20204;-72
2021/04/30 02:21:34;;;;;;;;;;;;;;;8.95;100.00;101190.89;1819037;79;20617;-72
2021/04/30 02:24:05;;;;;;;;;;;;;;;8.90;100.00;101192.89;1819049;78;20220;-72
2021/04/30 02:26:33;;;;;;;;;;;;;;;8.82;100.00;101195.01;1819085;79;20243;-72
2021/04/30 02:29:01;;;;;;;;;;;;;;;8.73;100.00;101204.08;1819353;79;22004;-72
2021/04/30 02:31:28;;;;;;;;;;;;;;;8.72;100.00;101207.56;1819188;78;20156;-73
2021/04/30 02:33:57;;;;;;;;;;;;;;;8.74;100.00;101197.97;1819244;79;20505;-72
2021/04/30 02:36:27;;;;;;;;;;;;;;;8.76;100.00;101201.78;1819174;79;20217;-72
2021/04/30 02:38:54;;;;;;;;;;;;;;;8.81;100.00;101199.34;1819332;79;20501;-72
2021/04/30 02:41:23;;;;;;;;;;;;;;;8.85;100.00;101200.03;1819149;79;21189;-72
2021/04/30 02:43:53;;;;;;;;;;;;;;;8.87;100.00;101193.05;1819051;78;20153;-73
2021/04/30 02:46:24;;;;;;;;;;;;;;;8.88;100.00;101192.11;1819090;79;20137;-73
2021/04/30 02:48:59;;;;;;;;;;;;;;;8.90;100.00;101191.11;1819226;76;20570;-72
2021/04/30 02:51:24;;;;;;;;;;;;;;;8.97;100.00;101186.45;1818740;79;20148;-73
2021/04/30 02:53:52;;;;;;;;;;;;;;;9.06;100.00;101186.47;1819108;78;21358;-74
2021/04/30 02:56:22;;;;;;;;;;;;;;;9.16;100.00;101181.20;1819068;78;20152;-74
2021/04/30 02:58:53;;;;;;;;;;;;;;;9.23;100.00;101173.02;1819129;79;20133;-73
2021/04/30 03:01:21;;;;;;;;;;;;;;;9.29;100.00;101165.37;1819051;78;20145;-73
2021/04/30 03:03:49;;;;;;;;;;;;;;;9.35;100.00;101162.48;1819423;78;20556;-73
2021/04/30 03:06:18;;;;;;;;;;;;;;;9.42;100.00;101162.52;1819257;78;21120;-74
2021/04/30 03:08:52;;;;;;;;;;;;;;;9.46;100.00;101152.37;1819156;79;20497;-74
2021/04/30 03:11:17;;;;;;;;;;;;;;;9.52;100.00;101156.77;1818965;79;20113;-72
2021/04/30 03:13:47;;;;;;;;;;;;;;;9.60;100.00;101156.38;1819337;78;20241;-73
2021/04/30 03:16:15;;;;;;;;;;;;;;;9.69;100.00;101154.57;1819340;78;20232;-71
2021/04/30 03:18:43;;;;;;;;;;;;;;;9.79;100.00;101165.27;1819180;78;21242;-73
2021/04/30 03:21:11;;;;;;;;;;;;;;;9.87;100.00;101186.41;1819315;78;20477;-74
2021/04/30 03:23:40;;;;;;;;;;;;;;;9.91;100.00;101212.09;1819151;78;20315;-73
2021/04/30 03:26:08;;;;;;;;;;;;;;;9.91;100.00;101225.52;1819067;78;20243;-70
2021/04/30 03:28:37;;;;;;;;;;;;;;;9.88;100.00;101223.09;1819201;79;20149;-72
2021/04/30 03:31:05;;;;;;;;;;;;;;;9.86;100.00;101224.94;1819298;79;21188;-71
2021/04/30 03:33:33;;;;;;;;;;;;;;;9.86;100.00;101228.34;1819277;79;20708;-72
2021/04/30 03:36:01;;;;;;;;;;;;;;;9.87;100.00;101221.41;1819423;78;20507;-71
2021/04/30 03:38:30;;;;;;;;;;;;;;;9.90;100.00;101205.23;1819263;78;21690;-71
2021/04/30 03:40:58;;;;;;;;;;;;;;;10.00;100.00;101209.45;1819278;79;20572;-74
2021/04/30 03:43:26;;;;;;;;;;;;;;;10.05;100.00;101220.43;1819430;78;21818;-71
2021/04/30 03:45:55;;;;;;;;;;;;;;;10.06;100.00;101217.73;1819025;79;20133;-72
2021/04/30 03:48:24;;;;;;;;;;;;;;;10.13;100.00;101221.28;1819131;79;20475;-71
2021/04/30 03:50:54;;;;;;;;;;;;;;;10.16;100.00;101217.25;1826692;77;20160;-72
2021/04/30 03:53:23;;;;;;;;;;;;;;;10.22;100.00;101219.05;1828853;78;20145;-71
2021/04/30 03:55:51;;;;;;;;;;;;;;;10.25;100.00;101217.58;1828880;78;21356;-72
2021/04/30 03:58:19;;;;;;;;;;;;;;;10.27;100.00;101211.87;1828864;78;20223;-73
2021/04/30 04:00:47;;;;;;;;;;;;;;;10.27;100.00;101209.73;1828979;78;20486;-73
2021/04/30 04:03:15;;;;;;;;;;;;;;;10.29;100.00;101208.72;1828831;78;20240;-73
2021/04/30 04:05:43;;;;;;;;;;;;;;;10.27;100.00;101207.98;1829119;78;20144;-76
2021/04/30 04:08:11;;;;;;;;;;;;;;;10.26;100.00;101206.75;1828925;78;21341;-73
2021/04/30 04:10:39;;;;;;;;;;;;;;;10.21;100.00;101204.40;1828838;78;20164;-73
2021/04/30 04:13:17;;;;;;;;;;;;;;;10.20;100.00;101208.39;1829099;78;20200;-73
2021/04/30 04:15:45;;;;;;;;;;;;;;;10.22;100.00;101207.83;1829164;78;20128;-74
2021/04/30 04:18:13;;;;;;;;;;;;;;;10.27;100.00;101210.56;1828945;78;20109;-73
2021/04/30 04:20:41;;;;;;;;;;;;;;;10.35;100.00;101210.13;1828979;78;21359;-75
2021/04/30 04:23:11;;;;;;;;;;;;;;;10.47;100.00;101213.31;1828857;78;20612;-74
2021/04/30 04:25:38;;;;;;;;;;;;;;;10.58;100.00;101201.88;1829120;78;20282;-74
2021/04/30 04:28:07;;;;;;;;;;;;;;;10.70;100.00;101195.12;1829045;78;20654;-73
2021/04/30 04:30:35;;;;;;;;;;;;;;;10.78;100.00;101195.08;1828840;78;20576;-75
2021/04/30 04:33:03;;;;;;;;;;;;;;;10.85;100.00;101195.06;1829170;78;21167;-73
2021/04/30 04:35:31;;;;;;;;;;;;;;;10.92;100.00;101202.04;1828883;78;20215;-73
2021/04/30 04:38:02;;;;;;;;;;;;;;;11.00;100.00;101206.34;1829135;78;20157;-75
2021/04/30 04:40:30;;;;;;;;;;;;;;;11.07;100.00;101212.36;1829034;78;20271;-73
2021/04/30 04:42:59;;;;;;;;;;;;;;;11.12;100.00;101207.73;1829050;78;20160;-72
2021/04/30 04:45:27;;;;;;;;;;;;;;;11.15;100.00;101213.20;1828797;78;21258;-75
2021/04/30 04:47:54;;;;;;;;;;;;;;;11.19;100.00;101213.41;1828894;78;20148;-72
2021/04/30 04:50:22;;;;;;;;;;;;;;;11.25;100.00;101203.95;1828592;78;20199;-76
2021/04/30 04:52:50;;;;;;;;;;;;;;;11.28;100.00;101201.16;1828869;78;20136;-73
2021/04/30 04:55:20;;;;;;;;;;;;;;;11.30;100.00;101204.48;1828880;78;20112;-75
2021/04/30 04:57:48;;;;;;;;;;;;;;;11.34;100.00;101207.74;1828956;78;21249;-72
2021/04/30 05:00:19;;;;;;;;;;;;;;;11.37;100.00;101206.25;1828954;78;20124;-73
2021/04/30 05:02:49;;;;;;;;;;;;;;;11.41;100.00;101197.35;1829025;78;20125;-76
2021/04/30 05:05:17;;;;;;;;;;;;;;;11.49;100.00;101193.81;1829120;78;20501;-75
2021/04/30 05:07:46;;;;;;;;;;;;;;;11.53;100.00;101187.04;1828885;78;20133;-72
2021/04/30 05:10:18;;;;;;;;;;;;;;;11.60;100.00;101184.90;1828833;78;22638;-74
2021/04/30 05:12:43;;;;;;;;;;;;;;;11.68;100.00;101190.44;1828818;78;20486;-71
2021/04/30 05:15:14;;;;;;;;;;;;;;;11.74;100.00;101199.22;1828807;78;20199;-73
2021/04/30 05:17:43;;;;;;;;;;;;;;;11.78;100.00;101205.88;1828525;78;20232;-76
2021/04/30 05:20:12;;;;;;;;;;;;;;;11.82;100.00;101198.27;1829002;78;20486;-73
2021/04/30 05:22:42;;;;;;;;;;;;;;;11.86;100.00;101189.81;1829041;78;21179;-73
2021/04/30 05:25:11;;;;;;;;;;;;;;;11.94;100.00;101194.05;1828698;77;20417;-74
2021/04/30 05:27:42;;;;;;;;;;;;;;;12.05;100.00;101196.82;1828937;78;20179;-73
2021/04/30 05:30:12;;;;;;;;;;;;;;;12.15;99.96;101197.91;1828665;77;20342;-73
2021/04/30 05:32:39;;;;;;;;;;;;;;;12.26;99.36;101193.30;1828883;78;20298;-75
2021/04/30 05:35:09;;;;;;;;;;;;;;;12.37;98.38;101195.59;1828878;77;21188;-74
2021/04/30 05:37:38;;;;;;;;;;;;;;;12.49;97.49;101192.19;1828798;78;20236;-73
2021/04/30 05:40:08;;;;;;;;;;;;;;;12.67;96.83;101203.98;1828733;77;20128;-76
2021/04/30 05:42:37;;;;;;;;;;;;;;;12.83;95.13;101201.69;1828810;78;20224;-78
2021/04/30 05:45:06;;;;;;;;;;;;;;;12.93;94.18;101200.95;1828539;77;20489;-76
2021/04/30 05:47:34;;;;;;;;;;;;;;;13.04;93.04;101196.33;1828683;77;21170;-76
2021/04/30 05:50:01;;;;;;;;;;;;;;;13.21;92.84;101200.77;1827667;77;20283;-74
2021/04/30 05:52:29;;;;;;;;;;;;;;;13.47;92.04;101194.23;1819068;78;20167;-76
2021/04/30 05:54:57;;;;;;;;;;;;;;;13.74;91.47;101189.24;1819062;77;20502;-74
2021/04/30 05:57:24;;;;;;;;;;;;;;;13.94;88.96;101189.13;1819033;77;20243;-75
2021/04/30 05:59:52;;;;;;;;;;;;;;;14.09;88.29;101195.85;1815803;77;21176;-73
2021/04/30 06:02:21;;;;;;;;;;;;;;;14.22;87.06;101191.41;1843387;77;20150;-72
2021/04/30 06:04:49;;;;;;;;;;;;;;;14.37;86.64;101192.09;1819303;77;20113;-75
2021/04/30 06:07:18;;;;;;;;;;;;;;;14.49;85.40;101194.27;1835502;78;20820;-73
2021/04/30 06:09:46;;;;;;;;;;;;;;;14.54;84.31;101193.47;1835359;76;20582;-74
2021/04/30 06:12:15;;;;;;;;;;;;;;;14.62;83.69;101192.41;1835292;78;21193;-73
2021/04/30 06:14:43;;;;;;;;;;;;;;;14.69;83.33;101187.94;1818536;77;20452;-77
2021/04/30 06:17:11;;;;;;;;;;;;;;;14.81;82.58;101188.78;1812485;78;20544;-73
2021/04/30 06:19:39;;;;;;;;;;;;;;;14.92;82.36;101188.83;1810241;78;20340;-73
2021/04/30 06:22:08;;;;;;;;;;;;;;;15.03;81.73;101185.41;1818785;77;20494;-76
2021/04/30 06:24:38;;;;;;;;;;;;;;;15.12;81.11;101186.84;1784638;79;21252;-75
2021/04/30 06:27:06;;;;;;;;;;;;;;;15.14;80.56;101186.71;1819126;77;21033;-73
2021/04/30 06:29:34;;;;;;;;;;;;;;;15.18;80.72;101186.37;1785412;80;20249;-74
2021/04/30 06:32:02;;;;;;;;;;;;;;;15.27;80.59;101190.89;1819448;79;20502;-74
2021/04/30 06:34:34;;;;;;;;;;;;;;;15.41;80.51;101192.91;1785316;80;20234;-74
2021/04/30 06:37:02;;;;;;;;;;;;;;;15.52;80.05;101204.23;1819328;77;21315;-76
2021/04/30 06:39:33;;;;;;;;;;;;;;;15.60;79.65;101203.14;1803361;78;20331;-76
2021/04/30 06:42:02;;;;;;;;;;;;;;;15.57;78.91;101206.50;1804994;77;20299;-73
2021/04/30 06:44:33;;;;;;;;;;;;;;;15.46;79.29;101213.83;1794482;79;20130;-76
2021/04/30 06:47:01;;;;;;;;;;;;;;;15.45;79.64;101216.55;1800921;78;20324;-75
2021/04/30 06:49:31;;;;;;;;;;;;;;;15.47;79.59;101208.12;1799411;79;21314;-74
2021/04/30 06:51:59;;;;;;;;;;;;;;;15.53;79.58;101211.13;1802553;79;20432;-74
2021/04/30 06:54:28;;;;;;;;;;;;;;;15.65;79.18;101222.41;1803686;79;20225;-72
2021/04/30 06:56:56;;;;;;;;;;;;;;;15.71;78.41;101219.31;1790508;79;20210;-75
2021/04/30 06:59:25;;;;;;;;;;;;;;;15.67;78.03;101219.19;1802297;79;20237;-73
2021/04/30 07:01:58;;;;;;;;;;;;;;;15.56;78.28;101217.43;1802648;79;21202;-76
2021/04/30 07:04:27;;;;;;;;;;;;;;;15.46;78.78;101215.14;1803825;79;20222;-75
2021/04/30 07:06:56;;;;;;;;;;;;;;;15.40;78.99;101223.46;1803541;79;20504;-80
2021/04/30 07:09:25;;;;;;;;;;;;;;;15.36;79.48;101221.55;1803481;79;20534;-79
2021/04/30 07:11:53;;;;;;;;;;;;;;;15.36;79.60;101213.70;1803979;79;20111;-74
2021/04/30 07:14:21;;;;;;;;;;;;;;;15.42;80.12;101215.48;1803706;79;21196;-72
2021/04/30 07:16:49;;;;;;;;;;;;;;;15.52;79.29;101209.92;1803542;79;20268;-77
2021/04/30 07:19:17;;;;;;;;;;;;;;;15.64;78.91;101210.27;1804162;79;20154;-73
2021/04/30 07:21:45;;;;;;;;;;;;;;;15.74;78.14;101202.06;1803643;79;20508;-73
2021/04/30 07:24:13;;;;;;;;;;;;;;;15.86;77.79;101199.78;1803732;79;20246;-74
2021/04/30 07:26:41;;;;;;;;;;;;;;;15.96;77.28;101205.11;1803592;79;22181;-75
2021/04/30 07:29:09;;;;;;;;;;;;;;;16.03;77.23;101205.82;1803713;79;20317;-74
2021/04/30 07:31:37;;;;;;;;;;;;;;;16.18;76.82;101199.34;1802644;79;20296;-75
2021/04/30 07:34:07;;;;;;;;;;;;;;;16.35;76.03;101196.20;1799292;79;20150;-74
2021/04/30 07:36:35;;;;;;;;;;;;;;;16.43;75.66;101195.08;1803672;79;20226;-75
2021/04/30 07:39:05;;;;;;;;;;;;;;;16.52;75.42;101201.38;1803499;79;21175;-74
2021/04/30 07:41:33;;;;;;;;;;;;;;;16.53;75.09;101195.16;1803556;79;20138;-77
2021/04/30 07:44:02;;;;;;;;;;;;;;;16.52;74.37;101197.91;1803469;79;20226;-76
2021/04/30 07:46:29;;;;;;;;;;;;;;;16.41;73.03;101200.09;1803629;79;20201;-76
2021/04/30 07:48:58;;;;;;;;;;;;;;;16.17;73.52;101196.39;1803514;79;20238;-76
2021/04/30 07:51:26;;;;;;;;;;;;;;;16.07;74.08;101203.31;1801746;78;22114;-74
2021/04/30 07:53:55;;;;;;;;;;;;;;;16.07;74.24;101200.70;1799219;78;20745;-74
2021/04/30 07:56:22;;;;;;;;;;;;;;;16.16;73.90;101209.12;1799439;78;20242;-76
2021/04/30 07:58:51;;;;;;;;;;;;;;;16.33;73.64;101211.69;1799248;79;20218;-75
2021/04/30 08:01:19;;;;;;;;;;;;;;;16.48;73.12;101207.81;1799505;79;20238;-70
2021/04/30 08:03:48;;;;;;;;;;;;;;;16.56;72.15;101211.96;1799192;79;21679;-74
2021/04/30 08:06:16;;;;;;;;;;;;;;;16.58;71.62;101214.00;1799168;79;20146;-73
2021/04/30 08:08:45;;;;;;;;;;;;;;;16.59;71.80;101211.70;1799372;78;20309;-75
2021/04/30 08:11:13;;;;;;;;;;;;;;;16.68;71.75;101219.31;1799026;79;20250;-71
2021/04/30 08:13:41;;;;;;;;;;;;;;;16.79;71.67;101216.14;1799496;78;20230;-74
2021/04/30 08:16:09;;;;;;;;;;;;;;;16.83;70.88;101218.03;1799355;78;22143;-78
2021/04/30 08:18:39;;;;;;;;;;;;;;;16.87;70.83;101209.80;1799272;79;20294;-72
2021/04/30 08:21:07;;;;;;;;;;;;;;;16.94;70.85;101214.05;1799323;78;20313;-73
2021/04/30 08:23:35;;;;;;;;;;;;;;;17.03;71.14;101217.20;1799329;78;20226;-74
2021/04/30 08:26:02;;;;;;;;;;;;;;;17.06;70.02;101207.77;1799274;79;20242;-77
2021/04/30 08:28:30;;;;;;;;;;;;;;;17.12;69.83;101211.66;1799201;79;21200;-79
2021/04/30 08:30:58;;;;;;;;;;;;;;;17.17;69.51;101213.39;1799259;79;20229;-75
2021/04/30 08:33:26;;;;;;;;;;;;;;;17.25;69.41;101215.74;1799181;79;20194;-76
2021/04/30 08:35:54;;;;;;;;;;;;;;;17.33;68.97;101218.53;1799392;79;20111;-73
2021/04/30 08:38:21;;;;;;;;;;;;;;;17.40;69.07;101216.21;1799106;78;20281;-76
2021/04/30 08:40:49;;;;;;;;;;;;;;;17.54;69.00;101213.72;1799488;79;22184;-75
2021/04/30 08:43:20;;;;;;;;;;;;;;;17.70;68.51;101220.17;1768526;79;20221;-80
2021/04/30 08:45:49;;;;;;;;;;;;;;;17.82;67.92;101211.22;1799435;79;20136;-73
2021/04/30 08:48:17;;;;;;;;;;;;;;;17.96;67.52;101210.02;1799272;79;20217;-75
2021/04/30 08:50:46;;;;;;;;;;;;;;;18.13;67.15;101204.56;1799247;79;20233;-73
2021/04/30 08:53:14;;;;;;;;;;;;;;;18.31;66.65;101202.46;1818593;77;21188;-79
2021/04/30 08:55:42;;;;;;;;;;;;;;;18.49;65.57;101217.05;1771337;81;20163;-73
2021/04/30 08:58:10;;;;;;;;;;;;;;;18.37;65.31;101211.58;1771312;81;20234;-71
2021/04/30 09:00:38;;;;;;;;;;;;;;;18.35;65.84;101214.81;1771509;81;20183;-76
2021/04/30 09:03:10;;;;;;;;;;;;;;;18.29;66.26;101211.42;1771427;79;20227;-75
2021/04/30 09:05:41;;;;;;;;;;;;;;;18.17;66.59;101207.27;1771365;81;21186;-74
2021/04/30 09:08:11;;;;;;;;;;;;;;;18.08;66.80;101190.55;1751997;79;20340;-79
2021/04/30 09:10:46;;;;;;;;;;;;;;;18.08;66.80;101180.52;1808304;79;20137;-74
2021/04/30 09:13:13;;;;;;;;;;;;;;;18.04;67.13;101179.95;1807805;79;20264;-73
2021/04/30 09:15:41;;;;;;;;;;;;;;;18.04;66.81;101181.75;1808253;79;20173;-77
2021/04/30 09:18:28;;;;;;;;;;;;;;;18.02;67.27;101199.45;1808393;78;21193;-74
2021/04/30 09:20:55;;;;;;;;;;;;;;;17.94;67.33;101196.17;1808304;79;20237;-73
2021/04/30 09:23:38;;;;;;;;;;;;;;;17.72;68.07;101190.67;1803838;79;20173;-75
2021/04/30 09:26:27;;;;;;;;;;;;;;;17.73;68.90;101187.09;1793741;79;20256;-71
2021/04/30 09:29:05;;;;;;;;;;;;;;;17.89;68.82;101191.82;1808420;78;20240;-74
2021/04/30 09:31:41;;;;;;;;;;;;;;;18.03;68.12;101195.86;1808350;78;21204;-73
2021/04/30 09:34:29;;;;;;;;;;;;;;;18.11;67.82;101186.33;1808244;78;20664;-74
2021/04/30 09:37:13;;;;;;;;;;;;;;;18.24;66.91;101183.44;1808107;79;20315;-73
2021/04/30 09:39:54;;;;;;;;;;;;;;;18.31;67.14;101180.61;1808342;79;20141;-75
2021/04/30 09:42:24;;;;;;;;;;;;;;;18.47;66.70;101183.51;1808392;79;20568;-75
2021/04/30 09:44:55;;;;;;;;;;;;;;;18.60;66.40;101188.03;1808241;79;22134;-78
2021/04/30 09:47:33;;;;;;;;;;;;;;;18.60;65.75;101197.71;1808114;79;37683;-76
2021/04/30 09:50:03;;;;;;;;;;;;;;;18.52;65.89;101209.39;1808350;79;20247;-73
2021/04/30 09:52:33;;;;;;;;;;;;;;;18.63;65.38;101206.15;1808308;78;20228;-76
2021/04/30 09:55:03;;;;;;;;;;;;;;;19.08;64.29;101206.32;1808484;78;20327;-74
2021/04/30 09:57:32;;;;;;;;;;;;;;;19.69;62.16;101205.87;1808494;78;21191;-76
2021/04/30 10:00:10;;;;;;;;;;;;;;;20.16;60.50;101205.22;1808073;79;20347;-78
2021/04/30 10:02:45;;;;;;;;;;;;;;;20.59;58.95;101199.55;1808548;79;20228;-76
2021/04/30 10:05:27;;;;;;;;;;;;;;;21.28;57.10;101194.77;1808225;79;20544;-76
2021/04/30 10:07:50;;;;;;;;;;;;;;;21.68;55.73;101184.02;1803512;79;20624;-73
2021/04/30 10:10:20;;;;;;;;;;;;;;;21.59;55.36;101177.41;1808278;78;21197;-75
2021/04/30 10:12:52;;;;;;;;;;;;;;;21.81;54.66;101169.87;1808301;79;20489;-73
2021/04/30 10:15:20;;;;;;;;;;;;;;;22.40;53.34;101170.16;1807804;79;20562;-74
2021/04/30 10:17:51;;;;;;;;;;;;;;;23.48;52.11;101176.27;1808334;78;20125;-76
2021/04/30 10:20:21;;;;;;;;;;;;;;;24.70;48.91;101167.81;1808126;79;20258;-76
2021/04/30 10:22:51;;;;;;;;;;;;;;;25.78;45.58;101163.09;1808649;78;21204;-75
2021/04/30 10:25:20;;;;;;;;;;;;;;;26.02;44.00;101154.45;1808467;78;20515;-78
2021/04/30 10:27:49;;;;;;;;;;;;;;;26.37;42.38;101148.76;1808269;78;20565;-73
2021/04/30 10:30:33;;;;;;;;;;;;;;;26.50;43.07;101140.88;1808380;78;20145;-73
2021/04/30 10:33:27;;;;;;;;;;;;;;;26.92;41.66;101142.64;1808562;78;20240;-77
2021/04/30 10:36:21;;;;;;;;;;;;;;;27.19;40.24;101132.42;1808591;79;21625;-80
2021/04/30 10:38:53;;;;;;;;;;;;;;;27.02;40.45;101125.80;1808452;79;20241;-78
2021/04/30 10:41:37;;;;;;;;;;;;;;;26.97;40.25;101130.88;1808856;79;20260;-75
2021/04/30 10:44:17;;;;;;;;;;;;;;;26.71;41.19;101136.33;1808300;79;20137;-74
2021/04/30 10:46:48;;;;;;;;;;;;;;;26.39;41.60;101130.24;1808425;78;20252;-71
2021/04/30 10:49:21;;;;;;;;;;;;;;;26.49;42.20;101133.41;1808538;79;21878;-75
2021/04/30 10:52:08;;;;;;;;;;;;;;;26.89;41.17;101139.03;1814443;78;20148;-74
2021/04/30 10:54:38;;;;;;;;;;;;;;;27.17;40.38;101130.48;1835614;78;20183;-76
2021/04/30 10:57:19;;;;;;;;;;;;;;;27.16;39.33;101130.98;1835453;78;20195;-74
2021/04/30 10:59:52;;;;;;;;;;;;;;;26.80;40.88;101125.03;1837468;78;20317;-74
2021/04/30 11:02:30;;;;;;;;;;;;;;;26.75;41.06;101122.12;1835037;78;21188;-72
2021/04/30 11:05:09;;;;;;;;;;;;;;;26.80;41.33;101115.20;1835106;78;20251;-72
2021/04/30 11:07:54;;;;;;;;;;;;;;;26.76;41.48;101122.44;1835502;78;20303;-79
2021/04/30 11:10:32;;;;;;;;;;;;;;;26.78;41.31;101109.73;1835525;78;20251;-73
2021/04/30 11:13:03;;;;;;;;;;;;;;;26.84;40.39;101110.31;1834017;78;20513;-73
2021/04/30 11:15:33;;;;;;;;;;;;;;;26.65;41.67;101099.00;1835203;78;21222;-76
2021/04/30 11:18:02;;;;;;;;;;;;;;;26.92;41.79;101098.69;1835205;78;20140;-76
2021/04/30 11:20:32;;;;;;;;;;;;;;;27.04;40.19;101107.77;1835386;78;20152;-75
2021/04/30 11:23:18;;;;;;;;;;;;;;;26.99;41.21;101100.38;1835455;78;21152;-74
2021/04/30 11:26:00;;;;;;;;;;;;;;;27.18;40.10;101100.98;1835417;78;20239;-71
2021/04/30 11:28:36;;;;;;;;;;;;;;;26.42;41.24;101095.80;1835073;78;21649;-78
2021/04/30 11:31:25;;;;;;;;;;;;;;;26.24;42.29;101096.25;1835195;78;20231;-77
2021/04/30 11:34:15;;;;;;;;;;;;;;;25.89;42.17;101092.64;1835300;78;20263;-80
2021/04/30 11:36:44;;;;;;;;;;;;;;;25.41;42.73;101078.21;1835040;78;20253;-74
2021/04/30 11:39:26;;;;;;;;;;;;;;;25.43;43.24;101072.72;1834893;78;20247;-72
2021/04/30 11:41:56;;;;;;;;;;;;;;;25.74;43.25;101063.98;1835276;78;21355;-79
2021/04/30 11:44:24;;;;;;;;;;;;;;;26.08;42.62;101065.91;1835191;78;20164;-74
2021/04/30 11:47:01;;;;;;;;;;;;;;;26.57;41.91;101072.05;1837045;78;20294;-71
2021/04/30 11:49:33;;;;;;;;;;;;;;;27.00;41.53;101067.87;1834950;78;20259;-73
2021/04/30 11:52:01;;;;;;;;;;;;;;;27.49;40.28;101065.02;1830699;78;20241;-75
2021/04/30 11:54:35;;;;;;;;;;;;;;;27.61;40.17;101068.73;1808231;79;21184;-72
2021/04/30 11:57:07;;;;;;;;;;;;;;;27.45;40.03;101070.44;1808422;79;20141;-74
2021/04/30 11:59:38;;;;;;;;;;;;;;;27.00;40.65;101074.03;1808169;79;20141;-75
2021/04/30 12:02:09;;;;;;;;;;;;;;;26.80;42.00;101077.92;1804106;79;20562;-73
2021/04/30 12:04:54;;;;;;;;;;;;;;;26.89;41.37;101071.95;1808478;79;20121;-75
2021/04/30 12:07:25;;;;;;;;;;;;;;;26.67;42.37;101061.88;1806068;79;21567;-78
2021/04/30 12:09:55;;;;;;;;;;;;;;;26.48;42.41;101066.56;1808175;79;20240;-72
2021/04/30 12:12:28;;;;;;;;;;;;;;;26.26;43.46;101062.31;1808449;79;20240;-73
2021/04/30 12:15:00;;;;;;;;;;;;;;;26.88;42.93;101056.98;1808106;78;20200;-72
2021/04/30 12:17:34;;;;;;;;;;;;;;;27.35;41.30;101060.13;1808530;79;20220;-71
2021/04/30 12:20:05;;;;;;;;;;;;;;;27.40;41.00;101057.69;1808354;78;21189;-74
2021/04/30 12:22:33;;;;;;;;;;;;;;;27.49;40.69;101059.18;1808440;78;20510;-74
2021/04/30 12:25:17;;;;;;;;;;;;;;;27.19;40.50;101058.64;1803875;79;20228;-79
2021/04/30 12:27:45;;;;;;;;;;;;;;;26.86;40.88;101064.86;1808847;78;20527;-77
2021/04/30 12:30:16;;;;;;;;;;;;;;;26.50;41.22;101064.52;1808443;78;20149;-81
2021/04/30 12:32:44;;;;;;;;;;;;;;;26.29;41.18;101057.94;1804652;79;21213;-78
2021/04/30 12:35:14;;;;;;;;;;;;;;;26.10;41.85;101060.70;1808400;78;20515;-72
2021/04/30 12:37:44;;;;;;;;;;;;;;;26.46;41.53;101049.95;1773644;79;20149;-75
2021/04/30 12:40:13;;;;;;;;;;;;;;;27.06;41.24;101050.59;1808348;78;20612;-73
2021/04/30 12:42:49;;;;;;;;;;;;;;;27.82;39.66;101043.23;1808563;79;20578;-73
2021/04/30 12:45:18;;;;;;;;;;;;;;;28.03;38.92;101044.86;1808945;78;21371;-80
2021/04/30 12:47:47;;;;;;;;;;;;;;;27.81;38.70;101038.92;1808442;78;20539;-74
2021/04/30 12:50:17;;;;;;;;;;;;;;;27.16;40.08;101039.05;1808411;79;20188;-73